Fink, Texas
Current Conditions -  °F | °C
As of 11:15 AM on Sunday 21 Dec 2014 (Local Time) from KGYI Reporting Station
Overcast Overcast  
Wind Chill: 43°   Ceiling: 1300
Heat Index: 49°   Visibility: 10mi
Dew Point: 46°   Wind: 15mph
Humidity: 89%   Direction: 170°S
Pressure: 30.05"   Gusts: NA
Location:  33.7873°N, 96.7018°W
Report Text: KGYI 211715Z AUTO 17013KT 10SM OVC013 09/08 A3005 RMK AO2 T00940076
Loading
Personal Weather Stations






























Interactive Weather Map New forecast layout! Learn more

10-Day Weather Forecast

Advertisements
Track Severe Weather on mobile